Time;durP1;ratioP1;P1;durP2;ratioP2;P2;SDS_P1;SDS_P2;PMS_P1;PMS_P2;Temp;Humidity;BMP_temperature;BMP_pressure;BME280_temperature;BME280_humidity;BME280_pressure;Samples;Min_cycle;Max_cycle;Signal;HPM_P1;HPM_P2
2022/03/02 00:00:34;;;;;;;2.25;0.90;;;1.40;99.90;;;;;;4443142;32;20073;-67
2022/03/02 00:03:00;;;;;;;1.25;1.10;;;1.50;99.90;;;;;;4441907;32;20297;-66
2022/03/02 00:05:27;;;;;;;3.60;1.55;;;1.40;99.90;;;;;;4438053;32;20060;-66
2022/03/02 00:07:53;;;;;;;1.52;1.42;;;1.40;99.90;;;;;;4444388;32;20084;-66
2022/03/02 00:10:18;;;;;;;1.02;0.98;;;1.40;99.90;;;;;;4444727;32;20437;-66
2022/03/02 00:12:44;;;;;;;0.77;0.77;;;1.40;99.90;;;;;;4444305;32;20069;-66
2022/03/02 00:15:10;;;;;;;4.28;1.80;;;1.40;99.90;;;;;;4444152;32;20080;-67
2022/03/02 00:17:35;;;;;;;0.73;0.73;;;1.50;99.90;;;;;;4444557;32;20431;-66
2022/03/02 00:20:01;;;;;;;1.30;1.23;;;1.60;99.90;;;;;;4449618;32;20115;-66
2022/03/02 00:22:26;;;;;;;3.05;2.20;;;1.60;99.90;;;;;;4444237;32;20072;-66
2022/03/02 00:24:52;;;;;;;2.80;2.00;;;1.60;99.90;;;;;;4447057;32;20061;-66
2022/03/02 00:27:19;;;;;;;0.85;0.85;;;1.60;99.90;;;;;;4443959;32;20095;-66
2022/03/02 00:29:45;;;;;;;1.02;0.90;;;1.30;99.90;;;;;;4442320;32;20090;-67
2022/03/02 00:32:11;;;;;;;3.37;1.98;;;1.30;99.90;;;;;;4444179;32;20061;-66
2022/03/02 00:34:36;;;;;;;1.60;1.25;;;1.20;99.90;;;;;;4442128;32;20068;-66
2022/03/02 00:37:02;;;;;;;0.90;0.90;;;1.30;99.90;;;;;;4448650;32;20068;-66
2022/03/02 00:39:27;;;;;;;0.90;0.90;;;1.20;99.90;;;;;;4460319;32;20462;-66
2022/03/02 00:41:53;;;;;;;3.35;0.85;;;1.30;99.90;;;;;;4453245;32;20472;-66
2022/03/02 00:44:18;;;;;;;0.80;0.80;;;1.30;99.90;;;;;;4443857;32;20068;-66
2022/03/02 00:46:44;;;;;;;0.98;0.93;;;1.30;99.90;;;;;;4444151;32;20077;-66
2022/03/02 00:49:10;;;;;;;1.50;1.27;;;1.40;99.90;;;;;;4440984;32;20061;-66
2022/03/02 00:51:35;;;;;;;0.85;0.85;;;1.60;99.90;;;;;;4422249;32;20132;-66
2022/03/02 00:54:01;;;;;;;2.20;1.20;;;1.60;99.90;;;;;;4440824;32;20070;-66
2022/03/02 00:56:27;;;;;;;1.58;1.15;;;1.60;99.90;;;;;;4441155;32;20069;-66
2022/03/02 00:58:52;;;;;;;1.98;1.77;;;1.60;99.90;;;;;;4436301;32;20560;-66
2022/03/02 01:01:18;;;;;;;0.85;0.85;;;1.60;99.90;;;;;;4446231;32;20323;-66
2022/03/02 01:03:43;;;;;;;0.40;0.40;;;1.60;99.90;;;;;;4441243;32;20068;-66
2022/03/02 01:06:09;;;;;;;2.95;1.42;;;1.60;99.90;;;;;;4440750;32;20115;-67
2022/03/02 01:08:34;;;;;;;7.93;2.05;;;1.60;99.90;;;;;;4439923;32;20053;-67
2022/03/02 01:11:00;;;;;;;2.58;1.05;;;1.70;99.90;;;;;;4428114;32;20116;-67
2022/03/02 01:13:26;;;;;;;2.10;1.92;;;1.70;99.90;;;;;;4439487;32;20550;-67
2022/03/02 01:15:52;;;;;;;1.17;1.08;;;1.70;99.90;;;;;;4443417;32;20134;-66
2022/03/02 01:18:18;;;;;;;1.42;1.33;;;1.70;99.90;;;;;;4441403;32;20057;-67
2022/03/02 01:20:44;;;;;;;2.17;1.73;;;1.70;99.90;;;;;;4442569;32;20081;-66
2022/03/02 01:23:10;;;;;;;1.08;1.00;;;1.70;99.90;;;;;;4440087;32;20069;-66
2022/03/02 01:25:35;;;;;;;1.05;0.95;;;1.70;99.90;;;;;;4429935;32;20060;-66
2022/03/02 01:28:01;;;;;;;0.98;0.98;;;1.80;99.90;;;;;;4445795;32;20074;-66
2022/03/02 01:30:26;;;;;;;1.48;1.33;;;1.80;99.90;;;;;;4441963;32;20077;-66
2022/03/02 01:32:52;;;;;;;0.98;0.98;;;1.70;99.90;;;;;;4439320;32;20497;-66
2022/03/02 01:35:18;;;;;;;1.42;1.05;;;1.60;99.90;;;;;;4438204;32;20438;-66
2022/03/02 01:37:43;;;;;;;13.35;2.75;;;1.70;99.90;;;;;;4442476;32;20073;-66
2022/03/02 01:40:09;;;;;;;1.62;1.52;;;1.70;99.90;;;;;;4445623;32;20097;-66
2022/03/02 01:42:41;;;;;;;2.65;2.30;;;1.70;99.90;;;;;;4443437;32;20068;-66
2022/03/02 01:45:08;;;;;;;0.70;0.70;;;1.70;99.90;;;;;;4444913;32;20067;-66
2022/03/02 01:47:34;;;;;;;1.08;1.08;;;1.80;99.90;;;;;;4454056;32;20108;-66
2022/03/02 01:50:00;;;;;;;1.35;0.98;;;1.70;99.90;;;;;;4439867;32;20097;-66
2022/03/02 01:52:26;;;;;;;0.95;0.90;;;1.60;99.90;;;;;;4443557;32;20533;-66
2022/03/02 01:54:51;;;;;;;1.08;1.05;;;1.60;99.90;;;;;;4443577;32;20080;-66
2022/03/02 01:57:17;;;;;;;4.85;1.62;;;1.50;99.90;;;;;;4448370;32;20074;-66
2022/03/02 01:59:43;;;;;;;0.82;0.82;;;1.60;99.90;;;;;;4445497;32;20084;-66
2022/03/02 02:02:08;;;;;;;3.40;1.83;;;1.50;99.90;;;;;;4442220;32;20126;-66
2022/03/02 02:04:34;;;;;;;2.65;2.17;;;1.30;99.90;;;;;;4448579;32;20092;-67
2022/03/02 02:07:00;;;;;;;1.62;1.52;;;1.30;99.90;;;;;;4448714;32;20119;-66
2022/03/02 02:09:25;;;;;;;0.80;0.80;;;1.30;99.90;;;;;;4442352;32;20090;-66
2022/03/02 02:11:51;;;;;;;0.95;0.95;;;1.40;99.90;;;;;;4444497;32;20177;-66
2022/03/02 02:14:16;;;;;;;3.45;2.05;;;1.40;99.90;;;;;;4448572;32;20089;-66
2022/03/02 02:16:42;;;;;;;1.90;1.58;;;1.40;99.90;;;;;;4448989;32;20525;-66
2022/03/02 02:19:07;;;;;;;0.80;0.80;;;1.40;99.90;;;;;;4435985;32;20533;-66
2022/03/02 02:21:33;;;;;;;2.20;2.00;;;1.50;99.90;;;;;;4435108;32;20168;-66
2022/03/02 02:23:59;;;;;;;1.23;1.15;;;1.60;99.90;;;;;;4444599;32;20128;-66
2022/03/02 02:26:25;;;;;;;1.33;1.20;;;1.60;99.90;;;;;;4429642;32;20073;-66
2022/03/02 02:28:51;;;;;;;2.17;1.12;;;1.50;99.90;;;;;;4433815;32;20147;-66
2022/03/02 02:31:17;;;;;;;0.75;0.75;;;1.50;99.90;;;;;;4434923;32;20069;-66
2022/03/02 02:33:43;;;;;;;0.85;0.80;;;1.50;99.90;;;;;;4444122;32;20080;-66
2022/03/02 02:36:08;;;;;;;0.82;0.82;;;1.50;99.90;;;;;;4444042;32;20089;-66
2022/03/02 02:38:34;;;;;;;1.48;1.12;;;1.40;99.90;;;;;;4445096;32;20130;-66
2022/03/02 02:40:59;;;;;;;0.62;0.62;;;1.50;99.90;;;;;;4445607;32;20081;-66
2022/03/02 02:43:26;;;;;;;6.57;2.65;;;1.50;99.90;;;;;;4436251;32;20469;-66
2022/03/02 02:45:52;;;;;;;6.95;3.17;;;1.50;99.90;;;;;;4435453;32;20082;-67
2022/03/02 02:48:18;;;;;;;1.25;1.15;;;1.50;99.90;;;;;;4443451;32;20158;-67
2022/03/02 02:50:44;;;;;;;1.15;1.05;;;1.50;99.90;;;;;;4445962;32;20116;-66
2022/03/02 02:53:11;;;;;;;0.82;0.82;;;1.40;99.90;;;;;;4431549;32;20488;-67
2022/03/02 02:55:38;;;;;;;1.52;1.33;;;1.40;99.90;;;;;;4431032;32;20224;-67
2022/03/02 02:58:04;;;;;;;1.35;1.30;;;1.40;99.90;;;;;;4447300;32;20077;-66
2022/03/02 03:00:33;;;;;;;2.72;1.58;;;1.30;99.90;;;;;;4445830;32;20061;-66
2022/03/02 03:03:00;;;;;;;4.75;1.40;;;1.20;99.90;;;;;;4430807;32;20109;-66
2022/03/02 03:05:28;;;;;;;2.22;1.77;;;1.10;99.90;;;;;;4446709;32;20081;-66
2022/03/02 03:07:55;;;;;;;1.37;1.17;;;1.10;99.90;;;;;;4440661;32;20880;-66
2022/03/02 03:10:21;;;;;;;1.48;1.02;;;1.20;99.90;;;;;;4445353;32;20553;-66
2022/03/02 03:12:47;;;;;;;1.12;1.02;;;1.30;99.90;;;;;;4430693;32;20077;-66
2022/03/02 03:15:15;;;;;;;1.23;1.12;;;1.40;99.90;;;;;;4443595;32;20556;-66
2022/03/02 03:17:41;;;;;;;9.43;2.10;;;1.50;99.90;;;;;;4429684;32;20113;-66
2022/03/02 03:20:09;;;;;;;1.25;1.20;;;1.50;99.90;;;;;;4430811;32;20577;-66
2022/03/02 03:22:35;;;;;;;0.62;0.62;;;1.40;99.90;;;;;;4445553;32;20065;-67
2022/03/02 03:25:01;;;;;;;4.62;1.48;;;1.40;99.90;;;;;;4443623;32;20525;-66
2022/03/02 03:27:26;;;;;;;1.20;1.10;;;1.40;99.90;;;;;;4444823;32;20132;-67
2022/03/02 03:29:52;;;;;;;4.75;2.58;;;1.50;99.90;;;;;;4442021;32;20069;-66
2022/03/02 03:32:18;;;;;;;0.80;0.80;;;1.50;99.90;;;;;;4441880;32;20065;-65
2022/03/02 03:34:43;;;;;;;0.98;0.98;;;1.50;99.90;;;;;;4435762;32;20533;-65
2022/03/02 03:37:09;;;;;;;0.73;0.73;;;1.40;99.90;;;;;;4422391;32;20084;-66
2022/03/02 03:39:35;;;;;;;2.03;1.83;;;1.40;99.90;;;;;;4428509;32;20530;-65
2022/03/02 03:42:01;;;;;;;0.88;0.88;;;1.40;99.90;;;;;;4441512;32;20069;-65
2022/03/02 03:44:26;;;;;;;4.65;1.90;;;1.30;99.90;;;;;;4428216;32;20588;-65
2022/03/02 03:46:52;;;;;;;0.60;0.60;;;1.40;99.90;;;;;;4446403;32;20645;-65
2022/03/02 03:49:18;;;;;;;1.08;1.05;;;1.30;99.90;;;;;;4447849;32;20442;-65
2022/03/02 03:51:43;;;;;;;1.85;1.30;;;1.20;99.90;;;;;;4451280;32;20168;-65
2022/03/02 03:54:10;;;;;;;1.33;1.23;;;1.20;99.90;;;;;;4440777;32;20058;-65
2022/03/02 03:56:36;;;;;;;3.10;1.85;;;1.30;99.90;;;;;;4439693;32;20532;-65
2022/03/02 03:59:01;;;;;;;6.43;2.03;;;1.30;99.90;;;;;;4443615;32;20486;-66
2022/03/02 04:01:27;;;;;;;25.75;1.30;;;1.20;99.90;;;;;;4428125;32;20068;-66
2022/03/02 04:03:53;;;;;;;0.90;0.90;;;1.30;99.90;;;;;;4443573;32;20217;-66
2022/03/02 04:06:19;;;;;;;2.30;1.92;;;1.20;99.90;;;;;;4442467;32;20089;-67
2022/03/02 04:08:44;;;;;;;1.00;1.00;;;1.10;99.90;;;;;;4444723;32;20072;-66
2022/03/02 04:11:10;;;;;;;2.33;1.40;;;1.30;99.90;;;;;;4444849;32;20061;-66
2022/03/02 04:13:35;;;;;;;1.23;1.12;;;1.20;99.90;;;;;;4441562;32;20119;-66
2022/03/02 04:16:02;;;;;;;1.55;1.33;;;1.20;99.90;;;;;;4444034;32;20073;-66
2022/03/02 04:18:28;;;;;;;0.90;0.90;;;1.20;99.90;;;;;;4442044;32;20111;-66
2022/03/02 04:20:53;;;;;;;0.73;0.73;;;1.20;99.90;;;;;;4444023;32;20064;-66
2022/03/02 04:23:21;;;;;;;2.08;1.40;;;1.10;99.90;;;;;;4443901;32;20100;-66
2022/03/02 04:25:47;;;;;;;2.17;1.87;;;1.10;99.90;;;;;;4443178;32;20212;-66
2022/03/02 04:28:13;;;;;;;1.25;0.93;;;1.10;99.90;;;;;;4443513;32;20069;-66
2022/03/02 04:30:39;;;;;;;3.37;2.05;;;1.00;99.90;;;;;;4445717;32;20081;-66
2022/03/02 04:33:04;;;;;;;10.45;3.08;;;1.00;99.90;;;;;;4443139;32;20096;-66
2022/03/02 04:35:31;;;;;;;1.55;1.30;;;1.00;99.90;;;;;;4443740;32;20165;-66
2022/03/02 04:37:57;;;;;;;1.73;1.58;;;1.00;99.90;;;;;;4435431;32;20081;-67
2022/03/02 04:40:22;;;;;;;7.22;2.50;;;1.00;99.90;;;;;;4443363;32;20132;-66
2022/03/02 04:42:48;;;;;;;1.35;1.25;;;1.00;99.90;;;;;;4443319;32;20085;-66
2022/03/02 04:45:13;;;;;;;0.80;0.80;;;1.10;99.90;;;;;;4438596;32;20447;-66
2022/03/02 04:47:39;;;;;;;0.73;0.73;;;1.20;99.90;;;;;;4429462;32;20065;-66
2022/03/02 04:50:06;;;;;;;5.85;1.92;;;1.20;99.90;;;;;;4440764;32;20088;-66
2022/03/02 04:52:32;;;;;;;1.73;1.40;;;1.30;99.90;;;;;;4440560;32;20072;-66
2022/03/02 04:55:13;;;;;;;17.45;0.90;;;1.20;99.90;;;;;;4414632;32;20522;-66
2022/03/02 04:57:44;;;;;;;1.98;1.75;;;1.20;99.90;;;;;;4429063;32;20060;-66
2022/03/02 05:00:14;;;;;;;0.68;0.68;;;1.20;99.90;;;;;;4444733;32;20138;-66
2022/03/02 05:02:41;;;;;;;0.57;0.57;;;1.20;99.90;;;;;;4442859;32;20117;-66
2022/03/02 05:05:08;;;;;;;2.00;1.80;;;1.20;99.90;;;;;;4441158;32;20072;-66
2022/03/02 05:07:34;;;;;;;1.33;1.23;;;1.30;99.90;;;;;;4433658;32;20089;-66
2022/03/02 05:09:59;;;;;;;7.03;2.87;;;1.30;99.90;;;;;;4428928;32;20077;-66
2022/03/02 05:12:25;;;;;;;4.82;2.42;;;1.30;99.90;;;;;;4440157;32;20060;-66
2022/03/02 05:14:50;;;;;;;7.50;1.50;;;1.20;99.90;;;;;;4435614;32;20073;-66
2022/03/02 05:17:16;;;;;;;1.02;1.00;;;1.20;99.90;;;;;;4443173;32;20068;-66
2022/03/02 05:19:41;;;;;;;1.80;1.40;;;1.20;99.90;;;;;;4433508;32;20084;-66
2022/03/02 05:22:07;;;;;;;0.88;0.88;;;1.10;99.90;;;;;;4434800;32;20445;-66
2022/03/02 05:24:33;;;;;;;0.95;0.95;;;1.00;99.90;;;;;;4433742;32;20660;-66
2022/03/02 05:26:58;;;;;;;0.95;0.93;;;1.10;99.90;;;;;;4437770;32;20080;-66
2022/03/02 05:29:24;;;;;;;1.00;1.00;;;1.10;99.90;;;;;;4443433;32;20068;-66
2022/03/02 05:31:49;;;;;;;1.30;1.20;;;1.20;99.90;;;;;;4441087;32;20120;-66
2022/03/02 05:34:15;;;;;;;3.72;1.33;;;1.10;99.90;;;;;;4439800;32;20080;-66
2022/03/02 05:36:40;;;;;;;0.77;0.65;;;1.10;99.90;;;;;;4436783;32;20454;-66
2022/03/02 05:39:06;;;;;;;0.90;0.90;;;1.00;99.90;;;;;;4449345;32;20068;-66
2022/03/02 05:41:33;;;;;;;0.85;0.85;;;1.00;99.90;;;;;;4443358;32;20085;-66
2022/03/02 05:43:58;;;;;;;0.90;0.90;;;1.10;99.90;;;;;;4438708;32;20065;-66
2022/03/02 05:46:24;;;;;;;1.50;1.23;;;1.00;99.90;;;;;;4433917;32;20061;-66
2022/03/02 05:48:52;;;;;;;2.15;1.73;;;1.00;99.90;;;;;;4436241;32;20138;-66
2022/03/02 05:51:18;;;;;;;2.28;1.67;;;1.00;99.90;;;;;;4441690;32;20076;-66
2022/03/02 05:53:44;;;;;;;1.67;1.58;;;1.10;99.90;;;;;;4447077;32;20228;-66
2022/03/02 05:56:09;;;;;;;2.60;1.87;;;1.10;99.90;;;;;;4443395;32;20090;-66
2022/03/02 05:58:35;;;;;;;1.62;1.52;;;1.00;99.90;;;;;;4442965;32;20065;-66
2022/03/02 06:01:00;;;;;;;0.62;0.62;;;1.00;99.90;;;;;;4435330;32;20064;-66
2022/03/02 06:03:26;;;;;;;1.35;1.25;;;0.90;99.90;;;;;;4429654;32;20124;-66
2022/03/02 06:05:51;;;;;;;0.85;0.85;;;0.80;99.90;;;;;;4432571;32;20097;-66
2022/03/02 06:08:17;;;;;;;11.73;3.03;;;0.80;99.90;;;;;;4440460;32;20060;-67
2022/03/02 06:10:43;;;;;;;2.12;1.92;;;0.80;99.90;;;;;;4440654;32;20093;-66
2022/03/02 06:13:09;;;;;;;15.90;2.30;;;0.80;99.90;;;;;;4433181;32;20081;-66
2022/03/02 06:15:35;;;;;;;2.17;1.65;;;0.90;99.90;;;;;;4429201;32;20454;-66
2022/03/02 06:18:01;;;;;;;1.50;1.40;;;1.00;99.90;;;;;;4420817;32;20449;-66
2022/03/02 06:20:28;;;;;;;1.33;1.23;;;1.00;99.90;;;;;;4426952;32;20072;-66
2022/03/02 06:22:54;;;;;;;4.70;1.80;;;1.00;99.90;;;;;;4426695;32;20081;-66
2022/03/02 06:25:20;;;;;;;10.30;1.73;;;1.00;99.90;;;;;;4432076;32;20065;-66
2022/03/02 06:27:47;;;;;;;6.32;3.20;;;1.00;99.90;;;;;;4421703;32;20138;-66
2022/03/02 06:30:13;;;;;;;0.73;0.73;;;1.10;99.90;;;;;;4425290;32;20069;-67
2022/03/02 06:32:38;;;;;;;1.83;1.35;;;1.10;99.90;;;;;;4413694;32;20105;-66
2022/03/02 06:35:06;;;;;;;2.67;1.87;;;1.20;99.90;;;;;;4438350;32;20080;-66
2022/03/02 06:37:33;;;;;;;2.37;1.75;;;1.20;99.90;;;;;;4434823;32;20056;-66
2022/03/02 06:40:06;;;;;;;0.95;0.95;;;1.20;99.90;;;;;;4430419;32;20624;-66
2022/03/02 06:43:11;;;;;;;0.80;0.80;;;1.20;99.90;;;;;;4436029;32;20077;-65
2022/03/02 06:46:05;;;;;;;0.82;0.82;;;1.20;99.90;;;;;;4405611;32;20599;-66
2022/03/02 06:48:37;;;;;;;1.23;1.15;;;1.30;99.90;;;;;;4418296;32;20151;-66
2022/03/02 06:51:03;;;;;;;2.62;1.60;;;1.30;99.90;;;;;;4423032;32;20517;-66
2022/03/02 06:53:33;;;;;;;0.85;0.85;;;1.40;99.90;;;;;;4426638;32;20097;-66
2022/03/02 06:56:03;;;;;;;8.02;3.55;;;1.30;99.90;;;;;;4425514;32;20093;-66
2022/03/02 06:58:41;;;;;;;1.58;1.45;;;1.30;99.90;;;;;;4409275;32;20100;-66
2022/03/02 07:01:10;;;;;;;8.40;2.00;;;1.40;99.90;;;;;;4407572;32;20060;-66
2022/03/02 07:03:42;;;;;;;0.80;0.80;;;1.40;99.90;;;;;;4421893;32;20654;-66
2022/03/02 07:06:08;;;;;;;5.20;1.42;;;1.50;99.90;;;;;;4418592;32;20096;-66
2022/03/02 07:08:34;;;;;;;1.27;1.20;;;1.50;99.90;;;;;;4421914;32;20085;-66
2022/03/02 07:10:59;;;;;;;6.43;2.62;;;1.50;99.90;;;;;;4424161;32;20841;-66
2022/03/02 07:13:27;;;;;;;1.73;1.60;;;1.50;99.90;;;;;;4431598;32;20114;-66
2022/03/02 07:15:53;;;;;;;10.95;2.58;;;1.40;99.90;;;;;;4423277;32;20089;-65
2022/03/02 07:18:18;;;;;;;2.40;1.92;;;1.60;99.90;;;;;;4426922;32;20089;-64
2022/03/02 07:20:46;;;;;;;1.20;1.10;;;1.60;99.90;;;;;;4429335;32;20420;-65
2022/03/02 07:23:15;;;;;;;3.15;1.48;;;1.60;99.90;;;;;;4431343;32;20068;-65
2022/03/02 07:25:42;;;;;;;2.67;2.08;;;1.60;99.90;;;;;;4427924;32;20112;-65
2022/03/02 07:28:10;;;;;;;1.25;1.15;;;1.70;99.90;;;;;;4423912;32;20096;-65
2022/03/02 07:30:36;;;;;;;0.70;0.70;;;1.80;99.90;;;;;;4427029;32;20078;-64
2022/03/02 07:33:04;;;;;;;2.10;1.65;;;1.70;99.90;;;;;;4435036;32;20345;-64
2022/03/02 07:35:32;;;;;;;0.93;0.93;;;1.70;99.90;;;;;;4421822;32;125293;-65
2022/03/02 07:37:57;;;;;;;1.67;1.58;;;1.80;99.90;;;;;;4427597;32;20548;-65
2022/03/02 07:40:23;;;;;;;1.20;1.15;;;1.80;99.90;;;;;;4424800;32;21031;-65
2022/03/02 07:42:50;;;;;;;6.50;3.25;;;1.70;99.90;;;;;;4427995;32;20116;-67
2022/03/02 07:45:16;;;;;;;0.80;0.80;;;1.80;99.90;;;;;;4425511;32;20108;-65
2022/03/02 07:47:42;;;;;;;1.05;0.93;;;1.90;99.90;;;;;;4427502;32;20915;-64
2022/03/02 07:50:09;;;;;;;3.97;2.40;;;2.00;99.90;;;;;;4424397;32;20391;-64
2022/03/02 07:52:37;;;;;;;3.67;1.95;;;2.00;99.90;;;;;;4434421;32;20646;-64
2022/03/02 07:55:09;;;;;;;1.42;1.27;;;2.00;99.90;;;;;;4425665;32;20086;-64
2022/03/02 07:57:35;;;;;;;1.00;1.00;;;2.10;99.90;;;;;;4428145;32;20460;-64
2022/03/02 08:00:04;;;;;;;1.20;1.10;;;2.20;99.90;;;;;;4422533;32;20065;-64
2022/03/02 08:02:31;;;;;;;1.90;1.70;;;2.10;99.90;;;;;;4426430;32;20069;-66
2022/03/02 08:04:57;;;;;;;1.27;1.17;;;2.10;99.90;;;;;;4426640;32;20076;-65
2022/03/02 08:07:23;;;;;;;13.77;1.55;;;2.20;99.90;;;;;;4429067;32;20078;-65
2022/03/02 08:09:51;;;;;;;1.50;1.40;;;2.20;99.90;;;;;;4424559;32;20088;-65
2022/03/02 08:12:20;;;;;;;1.73;1.37;;;2.30;99.90;;;;;;4423030;32;20081;-65
2022/03/02 08:14:46;;;;;;;0.98;0.98;;;2.30;99.90;;;;;;4418237;32;22039;-65
2022/03/02 08:17:12;;;;;;;1.00;0.98;;;2.40;99.90;;;;;;4426418;32;20238;-65
2022/03/02 08:19:38;;;;;;;2.10;1.50;;;2.70;99.90;;;;;;4427276;32;20081;-65
2022/03/02 08:22:09;;;;;;;4.45;1.52;;;2.80;99.90;;;;;;4426266;32;20167;-65
2022/03/02 08:24:38;;;;;;;1.27;1.15;;;2.90;99.90;;;;;;4426544;32;20084;-66
2022/03/02 08:27:04;;;;;;;3.22;2.50;;;3.10;99.90;;;;;;4427242;32;20123;-65
2022/03/02 08:29:32;;;;;;;1.48;1.37;;;3.00;99.90;;;;;;4425270;32;20188;-65
2022/03/02 08:31:59;;;;;;;19.48;1.60;;;3.00;99.90;;;;;;4421651;32;20121;-66
2022/03/02 08:34:27;;;;;;;2.05;1.37;;;3.00;99.90;;;;;;4420649;32;20203;-66
2022/03/02 08:36:53;;;;;;;3.33;2.22;;;3.10;99.90;;;;;;4422093;32;20088;-65
2022/03/02 08:39:19;;;;;;;0.98;0.98;;;3.20;99.90;;;;;;4422404;32;20383;-66
2022/03/02 08:41:45;;;;;;;1.30;1.20;;;3.30;99.90;;;;;;4424879;32;20460;-66
2022/03/02 08:44:12;;;;;;;10.93;3.28;;;3.30;99.90;;;;;;4423282;32;20109;-66
2022/03/02 08:46:38;;;;;;;1.48;1.37;;;3.50;99.90;;;;;;4422560;32;20076;-67
2022/03/02 08:49:04;;;;;;;1.90;1.37;;;3.70;99.90;;;;;;4424726;32;20174;-66
2022/03/02 08:51:30;;;;;;;1.15;1.05;;;3.80;99.90;;;;;;4423523;32;20089;-66
2022/03/02 08:53:59;;;;;;;0.80;0.80;;;3.70;99.90;;;;;;4400840;32;20557;-66
2022/03/02 08:56:25;;;;;;;0.85;0.85;;;4.10;99.90;;;;;;4419351;32;20081;-66
2022/03/02 08:58:52;;;;;;;1.40;1.30;;;4.30;99.90;;;;;;4416165;32;20052;-66
2022/03/02 09:01:18;;;;;;;2.47;1.83;;;4.40;99.90;;;;;;4410208;32;20072;-66
2022/03/02 09:03:48;;;;;;;3.17;2.08;;;4.70;99.90;;;;;;4384604;32;20132;-66
2022/03/02 09:06:15;;;;;;;7.37;1.75;;;4.80;99.90;;;;;;4394206;32;20099;-66
2022/03/02 09:08:41;;;;;;;10.70;4.80;;;4.90;99.90;;;;;;4373450;32;20065;-66
2022/03/02 09:11:08;;;;;;;2.28;1.83;;;5.20;99.90;;;;;;4402176;32;20096;-66
2022/03/02 09:13:36;;;;;;;16.15;3.37;;;5.30;99.90;;;;;;4395207;32;20128;-65
2022/03/02 09:16:03;;;;;;;2.90;2.00;;;5.50;99.90;;;;;;4384333;32;20078;-66
2022/03/02 09:18:28;;;;;;;6.70;1.77;;;5.60;99.90;;;;;;4403504;32;20081;-66
2022/03/02 09:20:59;;;;;;;2.08;1.10;;;5.60;99.90;;;;;;4411984;32;20775;-66
2022/03/02 09:23:29;;;;;;;2.67;2.10;;;5.60;99.90;;;;;;4412829;32;20073;-66
2022/03/02 09:25:58;;;;;;;1.85;1.30;;;5.80;99.90;;;;;;4410131;32;20085;-66
2022/03/02 09:28:26;;;;;;;0.98;0.98;;;6.00;99.90;;;;;;4389572;32;20493;-66
2022/03/02 09:30:52;;;;;;;4.57;2.35;;;6.20;99.90;;;;;;4404139;32;20123;-66
2022/03/02 09:33:21;;;;;;;1.00;1.00;;;6.50;99.90;;;;;;4401120;32;20263;-66
2022/03/02 09:35:46;;;;;;;4.28;2.40;;;6.50;99.90;;;;;;4403098;32;20177;-66
2022/03/02 09:38:12;;;;;;;1.45;1.15;;;6.70;99.90;;;;;;4407679;32;20114;-66
2022/03/02 09:40:41;;;;;;;1.85;1.33;;;6.70;99.90;;;;;;4409792;32;20089;-66
2022/03/02 09:43:13;;;;;;;3.25;1.73;;;6.80;99.90;;;;;;4402938;32;20124;-66
2022/03/02 09:45:42;;;;;;;1.30;1.20;;;6.90;99.90;;;;;;4397656;32;20945;-66
2022/03/02 09:48:15;;;;;;;1.40;1.25;;;6.90;99.90;;;;;;4406009;32;20109;-66
2022/03/02 09:50:41;;;;;;;1.77;1.30;;;6.90;99.90;;;;;;4395128;32;20714;-66
2022/03/02 09:53:13;;;;;;;1.60;1.42;;;6.90;99.90;;;;;;4414035;32;20176;-66
2022/03/02 09:55:40;;;;;;;10.55;2.05;;;6.90;99.00;;;;;;4412923;32;20145;-66
2022/03/02 09:58:06;;;;;;;1.73;1.37;;;6.90;99.20;;;;;;4404319;32;20173;-66
2022/03/02 10:00:33;;;;;;;1.15;1.12;;;7.00;99.80;;;;;;4412449;32;20195;-66
2022/03/02 10:03:00;;;;;;;2.08;1.48;;;6.80;97.70;;;;;;4410760;32;21662;-66
2022/03/02 10:05:29;;;;;;;4.80;1.95;;;6.70;98.70;;;;;;4410658;32;20122;-66
2022/03/02 10:07:59;;;;;;;11.68;1.45;;;6.90;98.30;;;;;;4392292;32;20151;-66
2022/03/02 10:10:28;;;;;;;2.47;1.27;;;7.00;97.80;;;;;;4419491;32;20434;-66
2022/03/02 10:12:56;;;;;;;5.25;1.80;;;7.00;97.20;;;;;;4417908;32;20081;-65
2022/03/02 10:15:22;;;;;;;2.33;1.60;;;7.10;98.00;;;;;;4415802;32;20549;-65
2022/03/02 10:17:51;;;;;;;2.35;1.50;;;7.20;97.70;;;;;;4418451;32;20089;-64
2022/03/02 10:20:20;;;;;;;4.25;1.92;;;7.30;97.60;;;;;;4415397;32;20132;-65
2022/03/02 10:23:07;;;;;;;2.72;1.85;;;7.30;98.60;;;;;;4398967;32;20540;-65
2022/03/02 10:26:01;;;;;;;1.33;1.23;;;7.40;97.10;;;;;;4400427;32;20089;-65
2022/03/02 10:28:30;;;;;;;1.77;1.23;;;7.20;97.10;;;;;;4399824;32;21708;-65
2022/03/02 10:31:13;;;;;;;5.10;2.12;;;7.30;96.50;;;;;;4406847;32;20446;-65
2022/03/02 10:33:46;;;;;;;5.50;1.73;;;7.30;96.10;;;;;;4412168;32;20105;-64
2022/03/02 10:36:11;;;;;;;1.25;1.15;;;7.40;96.70;;;;;;4408866;32;21465;-64
2022/03/02 10:38:59;;;;;;;1.30;1.20;;;7.50;95.10;;;;;;4418316;32;21116;-66
2022/03/02 10:41:27;;;;;;;1.65;1.25;;;7.50;96.60;;;;;;4403261;32;21865;-65
2022/03/02 10:43:59;;;;;;;5.85;2.97;;;7.60;97.10;;;;;;4415067;32;20092;-65
2022/03/02 10:46:25;;;;;;;2.42;1.83;;;7.70;95.90;;;;;;4419599;32;20092;-66
2022/03/02 10:49:21;;;;;;;1.98;1.25;;;7.80;96.30;;;;;;4416481;32;20117;-65
2022/03/02 10:51:47;;;;;;;3.60;1.50;;;8.10;95.40;;;;;;4410246;32;20176;-66
2022/03/02 10:54:17;;;;;;;1.42;0.95;;;8.20;93.80;;;;;;4419007;32;20204;-66
2022/03/02 10:56:44;;;;;;;7.70;1.33;;;8.20;93.80;;;;;;4418117;32;20116;-65
2022/03/02 10:59:16;;;;;;;4.70;1.67;;;8.10;93.90;;;;;;4422009;32;20414;-65
2022/03/02 11:01:44;;;;;;;2.08;1.50;;;8.40;93.80;;;;;;4424318;32;20063;-65
2022/03/02 11:04:10;;;;;;;4.45;2.25;;;8.60;92.60;;;;;;4421818;32;21422;-66
2022/03/02 11:06:37;;;;;;;26.30;3.12;;;8.70;91.90;;;;;;4417118;32;20081;-65
2022/03/02 11:09:04;;;;;;;1.75;1.23;;;8.70;91.20;;;;;;4419912;32;20101;-65
2022/03/02 11:11:33;;;;;;;4.05;1.52;;;8.70;92.10;;;;;;4402605;32;20229;-65
2022/03/02 11:13:58;;;;;;;1.15;1.05;;;9.00;91.40;;;;;;4417465;32;20081;-66
2022/03/02 11:16:25;;;;;;;5.37;3.20;;;9.00;91.20;;;;;;4423167;32;20090;-66
2022/03/02 11:18:52;;;;;;;2.45;1.15;;;9.20;90.10;;;;;;4413285;32;20436;-65
2022/03/02 11:21:22;;;;;;;1.05;0.95;;;9.10;90.20;;;;;;4414542;32;20144;-65
2022/03/02 11:23:52;;;;;;;3.83;2.28;;;9.40;90.10;;;;;;4414422;32;20085;-65
2022/03/02 11:26:23;;;;;;;1.05;0.90;;;9.80;89.00;;;;;;4417724;32;21519;-65
2022/03/02 11:28:49;;;;;;;;;;;10.20;86.20;;;;;;4413224;32;20082;-65
2022/03/02 11:31:38;;;;;;;1.90;1.60;;;10.20;87.50;;;;;;4421040;32;20336;-65
2022/03/02 11:34:22;;;;;;;2.20;1.75;;;10.10;81.60;;;;;;4401861;32;20076;-66
2022/03/02 11:36:51;;;;;;;1.17;1.12;;;9.90;79.70;;;;;;4417890;32;20210;-65
2022/03/02 11:39:20;;;;;;;2.47;1.60;;;9.80;79.40;;;;;;4410911;32;20900;-66
2022/03/02 11:41:50;;;;;;;4.82;2.75;;;10.10;77.70;;;;;;4420312;32;20118;-66
2022/03/02 11:44:35;;;;;;;1.77;1.48;;;10.30;77.00;;;;;;4422084;32;21555;-66
2022/03/02 11:47:03;;;;;;;1.05;0.93;;;10.60;73.00;;;;;;4419519;32;20096;-66
2022/03/02 11:49:47;;;;;;;1.08;0.95;;;10.50;74.20;;;;;;4418471;32;20599;-65
2022/03/02 11:52:17;;;;;;;0.77;0.77;;;10.60;75.20;;;;;;4415686;32;20573;-64
2022/03/02 11:54:46;;;;;;;21.85;3.45;;;10.90;73.40;;;;;;4415400;32;20596;-65
2022/03/02 11:57:14;;;;;;;1.42;0.65;;;11.00;72.70;;;;;;4400430;32;20081;-65
2022/03/02 11:59:40;;;;;;;2.00;1.33;;;11.00;74.30;;;;;;4405249;32;20184;-65
2022/03/02 12:02:22;;;;;;;11.35;1.25;;;11.70;73.80;;;;;;4422227;32;20069;-65
2022/03/02 12:05:05;;;;;;;1.67;1.10;;;11.80;70.30;;;;;;4406153;32;20594;-64
2022/03/02 12:07:40;;;;;;;1.00;1.00;;;11.50;71.40;;;;;;4406647;32;20100;-65
2022/03/02 12:10:20;;;;;;;1.33;1.17;;;11.90;68.90;;;;;;4411917;32;20101;-66
2022/03/02 12:12:46;;;;;;;3.45;2.22;;;11.70;67.80;;;;;;4409485;32;20158;-66
2022/03/02 12:15:12;;;;;;;2.55;1.65;;;11.90;67.10;;;;;;4406749;32;20093;-65
2022/03/02 12:17:38;;;;;;;1.77;1.30;;;11.50;68.40;;;;;;4402217;32;20080;-65
2022/03/02 12:20:10;;;;;;;1.23;1.08;;;12.10;68.30;;;;;;4396263;32;20140;-66
2022/03/02 12:22:40;;;;;;;1.35;1.25;;;13.00;66.10;;;;;;4421645;32;20213;-65
2022/03/02 12:25:08;;;;;;;1.40;1.17;;;12.80;66.40;;;;;;4406484;32;20082;-65
2022/03/02 12:27:33;;;;;;;1.50;1.12;;;12.70;65.30;;;;;;4423553;32;20068;-65
2022/03/02 12:30:04;;;;;;;1.85;1.33;;;13.00;65.20;;;;;;4423719;32;20100;-65
2022/03/02 12:32:32;;;;;;;2.50;1.33;;;13.00;63.60;;;;;;4419252;32;21187;-65
2022/03/02 12:35:00;;;;;;;1.95;1.23;;;13.60;64.00;;;;;;4406502;32;20077;-65
2022/03/02 12:37:26;;;;;;;3.15;1.65;;;14.00;63.20;;;;;;4413584;32;20506;-65
2022/03/02 12:39:52;;;;;;;9.68;2.33;;;14.40;61.80;;;;;;4407331;32;20120;-64
2022/03/02 12:42:18;;;;;;;1.62;1.15;;;14.40;62.70;;;;;;4417181;32;20081;-65
2022/03/02 12:44:47;;;;;;;3.33;2.08;;;13.70;61.90;;;;;;4407283;32;20915;-66
2022/03/02 12:47:16;;;;;;;1.90;1.48;;;13.80;60.10;;;;;;4398240;32;20075;-66
2022/03/02 12:49:44;;;;;;;0.90;0.90;;;14.10;62.70;;;;;;4407323;32;20076;-66
2022/03/02 12:52:11;;;;;;;1.67;1.58;;;14.30;61.00;;;;;;4400626;32;20514;-66
2022/03/02 12:54:41;;;;;;;1.20;1.10;;;14.20;60.20;;;;;;4392878;32;20097;-66
2022/03/02 12:57:09;;;;;;;2.80;1.92;;;14.40;58.60;;;;;;4388282;32;20201;-66